Time,TemperatureF,DewpointF,PressureIn,WindDirection,WindDirectionDegrees,WindSpeedMPH,WindSpeedGustMPH,Humidity,HourlyPrecipIn,Conditions,Clouds,dailyrainin,SoftwareType,DateUTC
2013-06-08 00:02:00,64.0,59.0,29.91,ESE,120,6.0,-999.0,82,-99.99,,,-99.99,,2013-06-08 05:02:00,
2013-06-08 00:12:00,64.0,59.0,29.91,ESE,120,6.0,-999.0,82,-99.99,,,-99.99,,2013-06-08 05:12:00,
2013-06-08 00:22:00,64.0,59.0,29.90,SE,130,6.0,-999.0,82,-99.99,,,-99.99,,2013-06-08 05:22:00,
2013-06-08 00:32:00,64.0,59.0,29.91,SE,140,6.0,-999.0,82,-99.99,,,-99.99,,2013-06-08 05:32:00,
2013-06-08 00:42:00,64.0,59.0,29.91,SSE,150,6.0,-999.0,82,-99.99,,,-99.99,,2013-06-08 05:42:00,
2013-06-08 00:52:00,66.0,59.0,29.91,SSE,150,7.0,-999.0,77,-99.99,,,-99.99,,2013-06-08 05:52:00,
2013-06-08 01:02:00,66.0,59.0,29.91,SSE,150,7.0,-999.0,77,-99.99,,,-99.99,,2013-06-08 06:02:00,
2013-06-08 01:12:00,66.0,59.0,29.91,SE,140,8.0,-999.0,77,-99.99,,,-99.99,,2013-06-08 06:12:00,
2013-06-08 01:22:00,64.0,59.0,29.90,SE,140,7.0,-999.0,82,-99.99,,,-99.99,,2013-06-08 06:22:00,
2013-06-08 01:32:00,64.0,59.0,29.89,SE,140,10.0,-999.0,82,-99.99,,,-99.99,,2013-06-08 06:32:00,
2013-06-08 01:42:00,64.0,59.0,29.88,SE,140,12.0,-999.0,82,-99.99,,,-99.99,,2013-06-08 06:42:00,
2013-06-08 01:52:00,64.0,57.0,29.89,SSE,150,12.0,-999.0,77,-99.99,,,-99.99,,2013-06-08 06:52:00,
2013-06-08 02:02:00,64.0,57.0,29.89,SSE,150,12.0,-999.0,77,-99.99,,,-99.99,,2013-06-08 07:02:00,
2013-06-08 02:12:00,64.0,57.0,29.89,SE,140,13.0,-999.0,77,-99.99,,,-99.99,,2013-06-08 07:12:00,
2013-06-08 02:22:00,64.0,57.0,29.90,SSE,150,9.0,16.0,77,-99.99,,,-99.99,,2013-06-08 07:22:00,
2013-06-08 02:32:00,64.0,57.0,29.89,SSE,150,10.0,-999.0,77,-99.99,,,-99.99,,2013-06-08 07:32:00,
2013-06-08 02:42:00,64.0,57.0,29.89,SSE,150,10.0,16.0,77,-99.99,,,-99.99,,2013-06-08 07:42:00,
2013-06-08 02:52:00,64.0,57.0,29.89,SSE,150,9.0,-999.0,77,-99.99,,,-99.99,,2013-06-08 07:52:00,
2013-06-08 03:02:00,64.0,57.0,29.89,SSE,150,9.0,-999.0,77,-99.99,,,-99.99,,2013-06-08 08:02:00,
2013-06-08 03:12:00,63.0,57.0,29.89,SSE,150,8.0,-999.0,82,-99.99,,,-99.99,,2013-06-08 08:12:00,
2013-06-08 03:22:00,63.0,57.0,29.88,SSE,150,10.0,-999.0,82,-99.99,,,-99.99,,2013-06-08 08:22:00,
2013-06-08 03:32:00,63.0,57.0,29.88,SSE,150,10.0,-999.0,82,-99.99,,,-99.99,,2013-06-08 08:32:00,
2013-06-08 03:42:00,63.0,57.0,29.87,SSE,160,12.0,-999.0,82,-99.99,,,-99.99,,2013-06-08 08:42:00,
2013-06-08 03:52:00,64.0,57.0,29.87,SSE,160,12.0,-999.0,77,-99.99,,,-99.99,,2013-06-08 08:52:00,
2013-06-08 04:02:00,64.0,57.0,29.87,SSE,160,12.0,-999.0,77,-99.99,,,-99.99,,2013-06-08 09:02:00,
2013-06-08 04:12:00,64.0,57.0,29.86,SSE,150,12.0,-999.0,77,-99.99,,,-99.99,,2013-06-08 09:12:00,
2013-06-08 04:22:00,64.0,57.0,29.86,SSE,160,10.0,-999.0,77,-99.99,,,-99.99,,2013-06-08 09:22:00,
2013-06-08 04:33:00,64.0,57.0,29.86,SSE,160,9.0,-999.0,77,-99.99,,,-99.99,,2013-06-08 09:33:00,
2013-06-08 04:42:00,64.0,57.0,29.86,SSE,150,12.0,16.0,77,-99.99,,,-99.99,,2013-06-08 09:42:00,
2013-06-08 04:52:00,64.0,57.0,29.85,SSE,160,10.0,-999.0,77,-99.99,,,-99.99,,2013-06-08 09:52:00,
2013-06-08 05:02:00,64.0,57.0,29.85,SSE,160,10.0,-999.0,77,-99.99,,,-99.99,,2013-06-08 10:02:00,
2013-06-08 05:12:00,64.0,57.0,29.85,SSE,160,9.0,-999.0,77,-99.99,,,-99.99,,2013-06-08 10:12:00,
2013-06-08 05:22:00,64.0,57.0,29.85,SSE,160,10.0,17.0,77,-99.99,,,-99.99,,2013-06-08 10:22:00,
2013-06-08 05:33:00,64.0,57.0,29.85,SSE,160,12.0,18.0,77,-99.99,,,-99.99,,2013-06-08 10:33:00,
2013-06-08 05:42:00,64.0,57.0,29.85,SSE,160,10.0,-999.0,77,-99.99,,,-99.99,,2013-06-08 10:42:00,
2013-06-08 05:52:00,64.0,57.0,29.84,SSE,160,10.0,-999.0,77,-99.99,,,-99.99,,2013-06-08 10:52:00,
2013-06-08 06:02:00,64.0,57.0,29.84,SSE,160,10.0,-999.0,77,-99.99,,,-99.99,,2013-06-08 11:02:00,
2013-06-08 06:12:00,64.0,57.0,29.85,SSE,150,9.0,-999.0,77,-99.99,,,-99.99,,2013-06-08 11:12:00,
2013-06-08 06:22:00,63.0,57.0,29.85,SSE,150,10.0,-999.0,82,-99.99,,,-99.99,,2013-06-08 11:22:00,
2013-06-08 06:32:00,63.0,57.0,29.85,SE,140,9.0,-999.0,82,-99.99,,,-99.99,,2013-06-08 11:32:00,
2013-06-08 06:42:00,63.0,57.0,29.85,SSE,150,8.0,-999.0,82,-99.99,,,-99.99,,2013-06-08 11:42:00,
2013-06-08 06:52:00,63.0,57.0,29.85,SSE,150,9.0,-999.0,82,-99.99,,,-99.99,,2013-06-08 11:52:00,
2013-06-08 07:02:00,63.0,57.0,29.85,SSE,150,9.0,-999.0,82,-99.99,,,-99.99,,2013-06-08 12:02:00,
2013-06-08 07:12:00,63.0,57.0,29.85,SSE,150,8.0,-999.0,82,-99.99,,,-99.99,,2013-06-08 12:12:00,
2013-06-08 07:22:00,64.0,57.0,29.85,SSE,150,9.0,-999.0,77,-99.99,,,-99.99,,2013-06-08 12:22:00,
2013-06-08 07:32:00,64.0,59.0,29.85,SSE,150,10.0,-999.0,82,-99.99,,,-99.99,,2013-06-08 12:32:00,
2013-06-08 07:42:00,64.0,59.0,29.85,SSE,150,8.0,-999.0,82,-99.99,,,-99.99,,2013-06-08 12:42:00,
2013-06-08 07:52:00,64.0,59.0,29.85,SE,140,10.0,-999.0,82,-99.99,,,-99.99,,2013-06-08 12:52:00,
2013-06-08 08:02:00,64.0,59.0,29.85,SE,140,10.0,-999.0,82,-99.99,,,-99.99,,2013-06-08 13:02:00,
2013-06-08 08:12:00,66.0,59.0,29.85,SSE,150,9.0,-999.0,77,-99.99,,,-99.99,,2013-06-08 13:12:00,
2013-06-08 08:22:00,66.0,61.0,29.85,SSE,150,9.0,17.0,82,-99.99,,,-99.99,,2013-06-08 13:22:00,
2013-06-08 08:32:00,68.0,61.0,29.85,SE,140,12.0,-999.0,77,-99.99,,,-99.99,,2013-06-08 13:32:00,
2013-06-08 08:42:00,68.0,61.0,29.85,SSE,150,12.0,-999.0,77,-99.99,,,-99.99,,2013-06-08 13:42:00,
2013-06-08 08:52:00,70.0,61.0,29.85,SSE,160,9.0,-999.0,73,-99.99,,,-99.99,,2013-06-08 13:52:00,
2013-06-08 09:02:00,70.0,61.0,29.85,SSE,160,9.0,-999.0,73,-99.99,,,-99.99,,2013-06-08 14:02:00,
2013-06-08 09:12:00,72.0,61.0,29.85,SSE,160,12.0,21.0,68,-99.99,,,-99.99,,2013-06-08 14:12:00,
2013-06-08 09:22:00,72.0,61.0,29.85,South,170,10.0,23.0,68,-99.99,,,-99.99,,2013-06-08 14:22:00,
2013-06-08 09:32:00,73.0,59.0,29.84,SSE,160,15.0,22.0,60,-99.99,,,-99.99,,2013-06-08 14:32:00,
2013-06-08 09:42:00,73.0,59.0,29.84,South,180,15.0,20.0,60,-99.99,,,-99.99,,2013-06-08 14:42:00,
2013-06-08 09:52:00,73.0,59.0,29.84,South,170,18.0,25.0,60,-99.99,,,-99.99,,2013-06-08 14:52:00,
2013-06-08 10:02:00,73.0,59.0,29.84,South,170,18.0,25.0,60,-99.99,,,-99.99,,2013-06-08 15:02:00,
2013-06-08 10:12:00,73.0,59.0,29.84,SSE,160,15.0,27.0,60,-99.99,,,-99.99,,2013-06-08 15:12:00,
2013-06-08 10:22:00,75.0,61.0,29.84,South,180,22.0,28.0,60,-99.99,,,-99.99,,2013-06-08 15:22:00,
2013-06-08 10:32:00,75.0,57.0,29.84,South,170,18.0,29.0,53,-99.99,,,-99.99,,2013-06-08 15:32:00,
2013-06-08 10:42:00,75.0,57.0,29.83,South,170,18.0,29.0,53,-99.99,,,-99.99,,2013-06-08 15:42:00,
2013-06-08 10:53:00,75.0,59.0,29.82,SSE,160,23.0,27.0,57,-99.99,,,-99.99,,2013-06-08 15:53:00,
2013-06-08 11:03:00,75.0,59.0,29.82,SSE,160,23.0,27.0,57,-99.99,,,-99.99,,2013-06-08 16:03:00,
2013-06-08 11:12:00,75.0,61.0,29.82,South,170,17.0,24.0,60,-99.99,,,-99.99,,2013-06-08 16:12:00,
2013-06-08 11:23:00,79.0,61.0,29.81,South,180,18.0,27.0,54,-99.99,,,-99.99,,2013-06-08 16:23:00,
2013-06-08 11:33:00,79.0,61.0,29.80,South,180,23.0,29.0,54,-99.99,,,-99.99,,2013-06-08 16:33:00,
2013-06-08 11:42:00,79.0,59.0,29.80,South,170,22.0,29.0,50,-99.99,,,-99.99,,2013-06-08 16:42:00,
2013-06-08 11:53:00,79.0,59.0,29.80,South,170,22.0,32.0,50,-99.99,,,-99.99,,2013-06-08 16:53:00,
2013-06-08 12:02:00,79.0,59.0,29.80,South,170,22.0,32.0,50,-99.99,,,-99.99,,2013-06-08 17:02:00,
2013-06-08 12:12:00,79.0,61.0,29.80,South,170,18.0,31.0,54,-99.99,,,-99.99,,2013-06-08 17:12:00,
2013-06-08 12:22:00,79.0,59.0,29.79,South,180,21.0,35.0,50,-99.99,,,-99.99,,2013-06-08 17:22:00,
2013-06-08 12:32:00,81.0,61.0,29.79,South,170,24.0,31.0,50,-99.99,,,-99.99,,2013-06-08 17:32:00,
2013-06-08 12:42:00,81.0,61.0,29.79,SSE,160,23.0,32.0,50,-99.99,,,-99.99,,2013-06-08 17:42:00,
2013-06-08 12:52:00,81.0,61.0,29.78,SSE,160,16.0,30.0,50,-99.99,,,-99.99,,2013-06-08 17:52:00,
2013-06-08 13:02:00,81.0,61.0,29.78,SSE,160,16.0,30.0,50,-99.99,,,-99.99,,2013-06-08 18:02:00,
2013-06-08 13:12:00,81.0,59.0,29.77,South,180,21.0,31.0,47,-99.99,,,-99.99,,2013-06-08 18:12:00,
2013-06-08 13:22:00,81.0,59.0,29.77,South,170,23.0,30.0,47,-99.99,,,-99.99,,2013-06-08 18:22:00,
2013-06-08 13:32:00,81.0,61.0,29.77,South,170,23.0,28.0,50,-99.99,,,-99.99,,2013-06-08 18:32:00,
2013-06-08 13:42:00,81.0,59.0,29.77,South,170,22.0,32.0,47,-99.99,,,-99.99,,2013-06-08 18:42:00,
2013-06-08 13:52:00,82.0,59.0,29.77,SSE,160,22.0,31.0,45,-99.99,,,-99.99,,2013-06-08 18:52:00,
2013-06-08 14:02:00,82.0,59.0,29.77,SSE,160,22.0,31.0,45,-99.99,,,-99.99,,2013-06-08 19:02:00,
2013-06-08 14:12:00,82.0,57.0,29.77,South,190,22.0,31.0,42,-99.99,,,-99.99,,2013-06-08 19:12:00,
2013-06-08 14:22:00,84.0,59.0,29.76,South,180,20.0,30.0,42,-99.99,,,-99.99,,2013-06-08 19:22:00,
2013-06-08 14:32:00,82.0,59.0,29.76,South,170,22.0,30.0,45,-99.99,,,-99.99,,2013-06-08 19:32:00,
2013-06-08 14:42:00,84.0,59.0,29.75,South,170,21.0,30.0,42,-99.99,,,-99.99,,2013-06-08 19:42:00,
2013-06-08 14:52:00,82.0,59.0,29.75,South,190,18.0,31.0,45,-99.99,,,-99.99,,2013-06-08 19:52:00,
2013-06-08 15:02:00,82.0,59.0,29.75,South,190,18.0,31.0,45,-99.99,,,-99.99,,2013-06-08 20:02:00,
2013-06-08 15:12:00,82.0,61.0,29.76,South,180,23.0,32.0,48,-99.99,,,-99.99,,2013-06-08 20:12:00,
2013-06-08 15:22:00,82.0,59.0,29.76,South,180,23.0,29.0,45,-99.99,,,-99.99,,2013-06-08 20:22:00,
2013-06-08 15:32:00,82.0,59.0,29.76,South,180,15.0,29.0,45,-99.99,,,-99.99,,2013-06-08 20:32:00,
2013-06-08 15:42:00,82.0,61.0,29.76,South,170,18.0,28.0,48,-99.99,,,-99.99,,2013-06-08 20:42:00,
2013-06-08 15:52:00,82.0,59.0,29.75,South,190,17.0,30.0,45,-99.99,,,-99.99,,2013-06-08 20:52:00,
2013-06-08 16:02:00,82.0,59.0,29.75,South,190,17.0,30.0,45,-99.99,,,-99.99,,2013-06-08 21:02:00,
2013-06-08 16:12:00,82.0,59.0,29.76,South,190,14.0,29.0,45,-99.99,,,-99.99,,2013-06-08 21:12:00,
2013-06-08 16:22:00,81.0,59.0,29.76,South,170,17.0,24.0,47,-99.99,,,-99.99,,2013-06-08 21:22:00,
2013-06-08 16:33:00,81.0,59.0,29.76,SSE,160,15.0,20.0,47,-99.99,,,-99.99,,2013-06-08 21:33:00,
2013-06-08 16:43:00,81.0,59.0,29.75,SSE,150,17.0,23.0,47,-99.99,,,-99.99,,2013-06-08 21:43:00,
2013-06-08 16:52:00,81.0,59.0,29.72,SSE,150,18.0,23.0,47,-99.99,,,-99.99,,2013-06-08 21:52:00,
2013-06-08 17:02:00,81.0,59.0,29.72,SSE,150,18.0,23.0,47,-99.99,,,-99.99,,2013-06-08 22:02:00,
2013-06-08 17:12:00,82.0,59.0,29.74,South,170,16.0,24.0,45,-99.99,,,-99.99,,2013-06-08 22:12:00,
2013-06-08 17:22:00,81.0,57.0,29.73,SSE,160,17.0,27.0,44,-99.99,,,-99.99,,2013-06-08 22:22:00,
2013-06-08 17:33:00,81.0,57.0,29.72,SSE,160,18.0,25.0,44,-99.99,,,-99.99,,2013-06-08 22:33:00,
2013-06-08 17:42:00,81.0,57.0,29.73,SSE,160,17.0,25.0,44,-99.99,,,-99.99,,2013-06-08 22:42:00,
2013-06-08 17:52:00,81.0,57.0,29.73,SSE,160,16.0,27.0,44,-99.99,,,-99.99,,2013-06-08 22:52:00,
2013-06-08 18:02:00,81.0,57.0,29.73,SSE,160,16.0,27.0,44,-99.99,,,-99.99,,2013-06-08 23:02:00,
2013-06-08 18:12:00,81.0,59.0,29.74,SSE,160,10.0,-999.0,47,-99.99,,,-99.99,,2013-06-08 23:12:00,
2013-06-08 18:22:00,79.0,59.0,29.75,SSE,160,10.0,20.0,50,-99.99,,,-99.99,,2013-06-08 23:22:00,
2013-06-08 18:32:00,79.0,59.0,29.76,SSE,150,8.0,-999.0,50,-99.99,,,-99.99,,2013-06-08 23:32:00,
2013-06-08 18:42:00,79.0,61.0,29.76,SSE,160,14.0,-999.0,54,-99.99,,,-99.99,,2013-06-08 23:42:00,
2013-06-08 18:52:00,79.0,61.0,29.77,SSE,160,14.0,-999.0,54,-99.99,,,-99.99,,2013-06-08 23:52:00,
2013-06-08 19:02:00,79.0,61.0,29.77,SSE,160,14.0,-999.0,54,-99.99,,,-99.99,,2013-06-09 00:02:00,
2013-06-08 19:12:00,77.0,61.0,29.77,SSE,160,10.0,16.0,57,-99.99,,,-99.99,,2013-06-09 00:12:00,
2013-06-08 19:22:00,73.0,63.0,29.82,WSW,240,17.0,24.0,68,-99.99,,,-99.99,,2013-06-09 00:22:00,
2013-06-08 19:32:00,72.0,64.0,29.84,SSW,210,12.0,27.0,78,-99.99,,,-99.99,,2013-06-09 00:32:00,
2013-06-08 19:42:00,70.0,64.0,29.84,SW,220,5.0,17.0,82,-99.99,,,-99.99,,2013-06-09 00:42:00,
2013-06-08 19:52:00,66.0,64.0,29.82,SE,140,7.0,-999.0,93,-99.99,,,-99.99,,2013-06-09 00:52:00,
2013-06-08 20:02:00,66.0,64.0,29.82,SE,140,7.0,-999.0,93,-99.99,,,-99.99,,2013-06-09 01:02:00,
2013-06-08 20:12:00,66.0,63.0,29.81,SSE,150,14.0,-999.0,88,-99.99,,,-99.99,,2013-06-09 01:12:00,
2013-06-08 20:22:00,66.0,63.0,29.78,SE,130,12.0,17.0,88,-99.99,,,-99.99,,2013-06-09 01:22:00,
2013-06-08 20:32:00,66.0,64.0,29.76,ESE,120,16.0,23.0,93,-99.99,,,-99.99,,2013-06-09 01:32:00,
2013-06-08 20:42:00,66.0,64.0,29.75,SE,130,12.0,25.0,93,-99.99,,,-99.99,,2013-06-09 01:42:00,
2013-06-08 20:52:00,68.0,64.0,29.80,South,170,8.0,16.0,88,-99.99,,,-99.99,,2013-06-09 01:52:00,
2013-06-08 21:02:00,68.0,64.0,29.80,South,170,8.0,16.0,88,-99.99,,,-99.99,,2013-06-09 02:02:00,
2013-06-08 21:12:00,66.0,63.0,29.79,ESE,120,12.0,-999.0,88,-99.99,,,-99.99,,2013-06-09 02:12:00,
2013-06-08 21:22:00,66.0,63.0,29.79,South,170,8.0,-999.0,88,-99.99,,,-99.99,,2013-06-09 02:22:00,
2013-06-08 21:32:00,66.0,63.0,29.79,South,190,7.0,-999.0,88,-99.99,,,-99.99,,2013-06-09 02:32:00,
2013-06-08 21:42:00,66.0,63.0,29.79,South,190,8.0,-999.0,88,-99.99,,,-99.99,,2013-06-09 02:42:00,
2013-06-08 21:52:00,64.0,63.0,29.80,SSW,210,10.0,-999.0,93,-99.99,,,-99.99,,2013-06-09 02:52:00,
2013-06-08 22:02:00,64.0,63.0,29.80,SSW,210,10.0,-999.0,93,-99.99,,,-99.99,,2013-06-09 03:02:00,
2013-06-08 22:12:00,64.0,61.0,29.82,SSW,200,12.0,-999.0,88,-99.99,,,-99.99,,2013-06-09 03:12:00,
2013-06-08 22:22:00,64.0,61.0,29.86,SW,230,7.0,-999.0,88,-99.99,,,-99.99,,2013-06-09 03:22:00,
2013-06-08 22:33:00,64.0,63.0,29.86,SW,220,7.0,-999.0,93,-99.99,,,-99.99,,2013-06-09 03:33:00,
2013-06-08 22:43:00,64.0,63.0,29.87,SW,220,8.0,-999.0,93,-99.99,,,-99.99,,2013-06-09 03:43:00,
2013-06-08 22:53:00,64.0,61.0,29.87,North,0,0.0,-999.0,88,-99.99,,,-99.99,,2013-06-09 03:53:00,
2013-06-08 23:02:00,64.0,61.0,29.87,North,0,0.0,-999.0,88,-99.99,,,-99.99,,2013-06-09 04:02:00,
2013-06-08 23:12:00,64.0,61.0,29.87,SW,220,5.0,-999.0,88,-99.99,,,-99.99,,2013-06-09 04:12:00,
2013-06-08 23:22:00,64.0,61.0,29.89,NW,310,6.0,-999.0,88,-99.99,,,-99.99,,2013-06-09 04:22:00,
2013-06-08 23:32:00,64.0,61.0,29.89,NNW,330,6.0,-999.0,88,-99.99,,,-99.99,,2013-06-09 04:32:00,
2013-06-08 23:42:00,64.0,63.0,29.89,NNW,340,5.0,-999.0,93,-99.99,,,-99.99,,2013-06-09 04:42:00,
2013-06-08 23:52:00,64.0,63.0,29.87,North,0,0.0,-999.0,93,-99.99,,,-99.99,,2013-06-09 04:52:00,